Time;durP1;ratioP1;P1;durP2;ratioP2;P2;SDS_P1;SDS_P2;PMS_P1;PMS_P2;Temp;Humidity;BMP_temperature;BMP_pressure;BME280_temperature;BME280_humidity;BME280_pressure;Samples;Min_cycle;Max_cycle;Signal;HPM_P1;HPM_P2
2021/05/01 00:00:19;;;;;;;17.73;14.45;;;;;;;3.65;100.00;92625.34;2100410;28;20078;-81
2021/05/01 00:01:19;;;;;;;18.80;15.55;;;;;;;3.49;100.00;92625.75;2117487;27;20024;-83
2021/05/01 00:02:20;;;;;;;22.33;17.00;;;;;;;3.57;100.00;92631.03;2112388;28;20023;-82
2021/05/01 00:03:21;;;;;;;21.15;17.05;;;;;;;3.43;100.00;92631.84;2089834;28;20118;-84
2021/05/01 00:04:21;;;;;;;22.38;16.65;;;;;;;3.44;100.00;92630.69;2089664;28;20045;-82
2021/05/01 00:05:22;;;;;;;20.75;16.90;;;;;;;3.42;100.00;92632.94;2098148;28;20107;-86
2021/05/01 00:06:23;;;;;;;23.00;16.33;;;;;;;3.41;100.00;92634.84;2097992;28;20139;-83
2021/05/01 00:07:23;;;;;;;21.38;16.00;;;;;;;3.36;100.00;92629.94;2090013;28;20025;-84
2021/05/01 00:08:28;;;;;;;21.42;15.55;;;;;;;3.37;100.00;92638.63;2089863;28;20102;-84
2021/05/01 00:09:29;;;;;;;21.80;16.25;;;;;;;3.38;100.00;92626.91;2090930;28;20574;-82
2021/05/01 00:10:30;;;;;;;22.08;15.85;;;;;;;3.34;100.00;92636.75;2102067;28;20110;-84
2021/05/01 00:11:31;;;;;;;22.45;15.90;;;;;;;3.31;100.00;92627.69;2106673;28;20024;-84
2021/05/01 00:12:31;;;;;;;24.25;17.40;;;;;;;3.29;100.00;92635.25;2106567;28;20020;-84
2021/05/01 00:13:33;;;;;;;20.95;16.25;;;;;;;3.29;100.00;92624.69;2098292;28;20131;-83
2021/05/01 00:14:36;;;;;;;20.27;15.40;;;;;;;3.30;100.00;92618.28;2115071;27;20058;-84
2021/05/01 00:15:37;;;;;;;24.70;16.05;;;;;;;3.27;100.00;92619.03;2115486;28;20321;-83
2021/05/01 00:16:37;;;;;;;26.42;16.27;;;;;;;3.34;100.00;92613.75;2117908;27;20031;-84
2021/05/01 00:17:39;;;;;;;23.20;17.23;;;;;;;3.27;100.00;92608.47;2114976;28;20729;-85
2021/05/01 00:18:39;;;;;;;22.50;16.60;;;;;;;3.34;100.00;92605.81;2101158;28;20083;-85
2021/05/01 00:19:40;;;;;;;20.75;14.85;;;;;;;3.32;100.00;92608.06;2098308;28;20048;-84
2021/05/01 00:20:40;;;;;;;19.85;15.13;;;;;;;3.31;100.00;92611.09;2106430;28;20031;-84
2021/05/01 00:21:41;;;;;;;21.20;15.27;;;;;;;3.30;100.00;92609.59;2110177;28;20016;-82
2021/05/01 00:22:42;;;;;;;19.08;15.27;;;;;;;3.39;100.00;92605.41;2114893;28;20019;-85
2021/05/01 00:23:42;;;;;;;19.95;14.68;;;;;;;3.35;100.00;92604.69;2106393;28;20047;-85
2021/05/01 00:24:43;;;;;;;20.73;14.55;;;;;;;3.43;100.00;92608.81;2106519;28;20103;-83
2021/05/01 00:25:44;;;;;;;18.52;15.25;;;;;;;3.34;100.00;92608.47;2106449;28;20017;-82
2021/05/01 00:26:44;;;;;;;19.42;15.40;;;;;;;3.35;100.00;92609.22;2098233;28;20020;-84
2021/05/01 00:27:45;;;;;;;19.42;14.82;;;;;;;3.27;100.00;92608.47;2098190;28;20079;-84
2021/05/01 00:28:47;;;;;;;19.02;15.35;;;;;;;3.25;100.00;92608.09;2098045;28;20497;-85
2021/05/01 00:29:48;;;;;;;17.95;13.73;;;;;;;3.30;100.00;92610.34;2098158;28;20112;-86
2021/05/01 00:30:49;;;;;;;17.00;13.60;;;;;;;3.14;100.00;92607.38;2089603;28;20087;-83
2021/05/01 00:31:50;;;;;;;18.48;14.68;;;;;;;3.13;100.00;92600.59;2106727;27;20098;-82
2021/05/01 00:32:51;;;;;;;17.05;13.38;;;;;;;3.17;100.00;92602.09;2114895;28;20034;-85
2021/05/01 00:33:51;;;;;;;18.83;14.90;;;;;;;3.15;100.00;92606.22;2115078;27;20020;-86
2021/05/01 00:34:52;;;;;;;17.90;14.52;;;;;;;3.10;100.00;92610.00;2114900;28;20036;-83
2021/05/01 00:35:53;;;;;;;17.23;14.15;;;;;;;3.13;100.00;92603.97;2098133;28;20021;-83
2021/05/01 00:36:53;;;;;;;20.33;14.73;;;;;;;3.18;100.00;92611.50;2106665;28;20031;-83
2021/05/01 00:37:54;;;;;;;18.10;13.88;;;;;;;3.08;100.00;92607.00;2098181;28;20020;-84
2021/05/01 00:38:55;;;;;;;17.80;14.48;;;;;;;3.11;100.00;92605.47;2089656;28;20632;-84
2021/05/01 00:39:56;;;;;;;17.60;13.60;;;;;;;3.16;100.00;92607.72;2089799;28;20021;-85
2021/05/01 00:40:59;;;;;;;17.17;13.60;;;;;;;3.09;100.00;92611.16;2105452;28;20437;-83
2021/05/01 00:42:00;;;;;;;14.68;12.38;;;;;;;3.10;100.00;92612.66;2106400;28;20027;-84
2021/05/01 00:43:01;;;;;;;16.48;13.63;;;;;;;3.08;100.00;92611.53;2102472;28;20532;-83
2021/05/01 00:44:09;;;;;;;15.45;13.15;;;;;;;3.14;100.00;92610.00;2114533;28;20125;-83
2021/05/01 00:45:10;;;;;;;15.80;12.90;;;;;;;3.10;100.00;92601.34;2105463;28;20423;-85
2021/05/01 00:46:11;;;;;;;17.42;14.00;;;;;;;3.01;100.00;92605.13;2089804;28;20458;-85
2021/05/01 00:47:12;;;;;;;18.40;13.80;;;;;;;3.06;100.00;92611.91;2097176;28;20020;-83
2021/05/01 00:48:12;;;;;;;18.55;13.57;;;;;;;3.02;100.00;92611.91;2098020;28;20468;-84
2021/05/01 00:49:14;;;;;;;18.20;13.18;;;;;;;3.11;100.00;92611.50;2098115;28;20017;-85
2021/05/01 00:50:15;;;;;;;16.58;13.80;;;;;;;3.05;100.00;92609.66;2098017;28;20067;-84
2021/05/01 00:51:16;;;;;;;17.42;14.32;;;;;;;3.04;100.00;92611.53;2106256;28;20020;-85
2021/05/01 00:52:16;;;;;;;19.13;14.75;;;;;;;3.05;100.00;92614.94;2114748;28;20024;-84
2021/05/01 00:53:17;;;;;;;17.92;14.00;;;;;;;2.99;100.00;92614.56;2114450;28;20072;-84
2021/05/01 00:54:18;;;;;;;17.92;13.98;;;;;;;2.99;100.00;92617.22;2114396;28;20111;-82
2021/05/01 00:55:19;;;;;;;17.75;14.68;;;;;;;3.03;100.00;92610.03;2114798;28;20070;-83
2021/05/01 00:56:20;;;;;;;17.25;13.65;;;;;;;3.00;100.00;92610.78;2106396;28;20027;-83
2021/05/01 00:57:21;;;;;;;17.15;13.98;;;;;;;2.97;100.00;92607.00;2106355;28;20535;-83
2021/05/01 00:58:22;;;;;;;17.50;13.25;;;;;;;3.06;100.00;92609.25;2095077;28;20881;-82
2021/05/01 00:59:23;;;;;;;16.35;13.68;;;;;;;3.09;100.00;92602.47;2092838;28;20028;-85
2021/05/01 01:01:26;;;;;;;18.05;13.30;;;;;;;2.91;100.00;92605.16;2097981;28;20020;-83
2021/05/01 01:02:28;;;;;;;16.00;12.93;;;;;;;2.84;100.00;92599.88;2113914;27;20479;-85
2021/05/01 01:03:30;;;;;;;16.85;12.93;;;;;;;3.00;100.00;92602.88;2114897;28;20030;-86
2021/05/01 01:04:31;;;;;;;16.20;12.95;;;;;;;2.88;100.00;92598.72;2097995;28;20044;-85
2021/05/01 01:05:32;;;;;;;28.98;13.82;;;;;;;2.98;100.00;92597.19;2093348;28;20032;-84
2021/05/01 01:06:32;;;;;;;24.30;12.95;;;;;;;2.96;100.00;92599.47;2096592;28;20028;-86
2021/05/01 01:07:33;;;;;;;16.50;12.48;;;;;;;2.95;100.00;92598.72;2088612;28;20031;-85
2021/05/01 01:08:35;;;;;;;18.40;12.90;;;;;;;2.89;100.00;92610.03;2092713;28;20024;-84
2021/05/01 01:09:35;;;;;;;16.05;12.63;;;;;;;2.91;100.00;92610.44;2109153;28;20118;-83
2021/05/01 01:10:36;;;;;;;15.93;12.30;;;;;;;2.85;100.00;92604.00;2092745;28;20063;-83
2021/05/01 01:11:37;;;;;;;15.80;11.88;;;;;;;2.98;100.00;92607.75;2109736;28;20056;-83
2021/05/01 01:12:38;;;;;;;15.18;11.40;;;;;;;2.94;100.00;92607.78;2119901;27;20035;-81
2021/05/01 01:13:39;;;;;;;15.88;11.70;;;;;;;3.05;100.00;92601.72;2118134;27;20102;-86
2021/05/01 01:14:40;;;;;;;34.58;11.85;;;;;;;2.90;100.00;92604.41;2111612;28;20027;-81
2021/05/01 01:15:40;;;;;;;21.25;12.38;;;;;;;2.89;100.00;92594.94;2106498;28;20023;-82
2021/05/01 01:16:44;;;;;;;12.27;10.70;;;;;;;2.81;100.00;92601.41;2106758;28;20484;-81
2021/05/01 01:17:45;;;;;;;17.83;10.45;;;;;;;2.80;100.00;92599.88;2098817;28;20441;-83
2021/05/01 01:18:46;;;;;;;13.80;10.77;;;;;;;2.88;100.00;92597.97;2091487;28;20036;-83
2021/05/01 01:19:46;;;;;;;18.45;11.73;;;;;;;2.80;100.00;92593.84;2112197;28;20098;-86
2021/05/01 01:20:47;;;;;;;22.02;11.07;;;;;;;2.73;100.00;92587.44;2114611;28;20030;-84
2021/05/01 01:21:49;;;;;;;31.00;11.88;;;;;;;2.75;100.00;92593.09;2114380;28;20027;-86
2021/05/01 01:22:50;;;;;;;18.48;11.52;;;;;;;2.82;100.00;92596.88;2123026;27;20058;-83
2021/05/01 01:23:51;;;;;;;16.67;11.57;;;;;;;2.77;100.00;92598.75;2105966;28;20663;-84
2021/05/01 01:24:52;;;;;;;44.38;11.57;;;;;;;2.75;100.00;92592.34;2106052;28;20023;-85
2021/05/01 01:25:53;;;;;;;15.48;10.85;;;;;;;2.76;100.00;92599.13;2097477;28;20028;-85
2021/05/01 01:26:54;;;;;;;16.90;10.57;;;;;;;2.74;100.00;92591.59;2105999;28;20472;-84
2021/05/01 01:27:55;;;;;;;20.92;11.00;;;;;;;2.74;100.00;92590.84;2099846;28;20049;-83
2021/05/01 01:28:56;;;;;;;20.10;11.57;;;;;;;2.69;100.00;92591.22;2104947;28;20020;-83
2021/05/01 01:29:56;;;;;;;12.93;10.45;;;;;;;2.71;100.00;92589.69;2100422;28;20027;-84
2021/05/01 01:30:57;;;;;;;20.27;10.80;;;;;;;2.62;100.00;92591.22;2092181;28;20028;-82
2021/05/01 01:31:58;;;;;;;13.82;10.68;;;;;;;2.63;100.00;92590.84;2092420;28;20029;-85
2021/05/01 01:33:02;;;;;;;15.85;11.32;;;;;;;2.89;100.00;92589.69;2100734;28;20032;-83
2021/05/01 01:34:03;;;;;;;21.60;11.35;;;;;;;2.80;100.00;92580.66;2097890;28;20028;-82
2021/05/01 01:35:05;;;;;;;40.92;11.60;;;;;;;2.79;100.00;92587.81;2097792;28;20072;-84
2021/05/01 01:36:08;;;;;;;21.17;11.10;;;;;;;2.81;100.00;92592.69;2114249;28;20076;-84
2021/05/01 01:37:09;;;;;;;40.03;11.20;;;;;;;2.75;100.00;92595.72;2105879;28;20133;-85
2021/05/01 01:38:10;;;;;;;25.58;10.98;;;;;;;2.75;100.00;92587.81;2098563;28;20028;-84
2021/05/01 01:39:10;;;;;;;18.77;11.13;;;;;;;2.73;100.00;92587.44;2105801;28;20020;-83
2021/05/01 01:40:13;;;;;;;26.05;12.25;;;;;;;2.77;100.00;92587.44;2114332;28;20435;-87
2021/05/01 01:41:13;;;;;;;31.00;11.15;;;;;;;2.67;100.00;92588.19;2114296;28;20020;-86
2021/05/01 01:42:14;;;;;;;17.92;10.88;;;;;;;2.65;100.00;92587.84;2097467;28;20035;-85
2021/05/01 01:43:15;;;;;;;25.38;11.57;;;;;;;2.79;100.00;92590.44;2114313;28;20057;-86
2021/05/01 01:44:15;;;;;;;21.48;11.45;;;;;;;2.88;100.00;92588.19;2114179;28;20464;-84
2021/05/01 01:45:19;;;;;;;18.88;11.57;;;;;;;2.98;100.00;92590.03;2109934;28;20478;-85
2021/05/01 01:46:20;;;;;;;16.20;11.13;;;;;;;2.90;100.00;92590.44;2104123;28;20023;-83
2021/05/01 01:47:20;;;;;;;17.38;11.43;;;;;;;2.76;100.00;92588.56;2108397;28;20054;-84
2021/05/01 01:48:21;;;;;;;13.65;11.52;;;;;;;2.74;100.00;92588.19;2103143;28;20511;-86
2021/05/01 01:49:22;;;;;;;28.63;11.20;;;;;;;2.78;100.00;92592.34;2100116;28;20600;-85
2021/05/01 01:50:24;;;;;;;38.35;11.98;;;;;;;2.80;100.00;92591.94;2105822;28;20028;-82
2021/05/01 01:51:24;;;;;;;40.60;13.38;;;;;;;2.71;100.00;92591.59;2109860;28;20088;-83
2021/05/01 01:52:26;;;;;;;21.13;11.70;;;;;;;2.77;100.00;92590.09;2105865;28;20028;-82
2021/05/01 01:53:26;;;;;;;21.23;11.95;;;;;;;2.64;100.00;92588.97;2114238;28;20047;-85
2021/05/01 01:54:27;;;;;;;22.50;13.35;;;;;;;2.62;100.00;92586.69;2105685;28;20070;-84
2021/05/01 01:55:28;;;;;;;50.67;11.95;;;;;;;2.65;100.00;92590.47;2105810;28;20023;-83
2021/05/01 01:56:28;;;;;;;17.20;12.93;;;;;;;2.63;100.00;92593.47;2094905;28;20043;-85
2021/05/01 01:57:29;;;;;;;22.88;12.75;;;;;;;2.59;100.00;92590.09;2105819;28;20020;-86
2021/05/01 01:58:30;;;;;;;16.77;11.80;;;;;;;2.72;100.00;92585.16;2097847;28;20032;-85
2021/05/01 01:59:31;;;;;;;23.73;12.93;;;;;;;2.77;100.00;92587.44;2105752;28;20538;-83
2021/05/01 02:00:35;;;;;;;23.10;12.00;;;;;;;2.83;100.00;92585.19;2097425;28;20028;-84
2021/05/01 02:01:35;;;;;;;17.55;11.77;;;;;;;2.78;100.00;92589.69;2101904;28;20073;-83
2021/05/01 02:02:36;;;;;;;19.63;12.02;;;;;;;2.63;100.00;92587.44;2105826;28;20104;-83
2021/05/01 02:04:54;;;;;;;;;;;;;;;2.68;100.00;92590.47;2148587;27;20120;-86
2021/05/01 02:05:54;;;;;;;15.52;10.43;;;;;;;2.59;100.00;92589.31;2122357;27;19919;-86
2021/05/01 02:06:55;;;;;;;20.77;11.32;;;;;;;2.68;100.00;92587.09;2120286;27;20383;-85
2021/05/01 02:07:57;;;;;;;23.50;11.65;;;;;;;2.62;100.00;92591.22;2116978;28;20495;-87
2021/05/01 02:08:57;;;;;;;31.83;12.63;;;;;;;2.59;100.00;92582.19;2105304;28;20062;-87
2021/05/01 02:09:58;;;;;;;30.27;12.90;;;;;;;2.64;100.00;92581.06;2128762;27;20034;-87
2021/05/01 02:10:59;;;;;;;65.95;13.18;;;;;;;2.61;100.00;92577.28;2121819;27;20083;-86
2021/05/01 02:11:59;;;;;;;35.63;12.60;;;;;;;2.58;100.00;92572.00;2128380;27;20101;-82
2021/05/01 02:13:01;;;;;;;28.67;12.23;;;;;;;2.67;100.00;92567.09;2125157;27;20433;-84
2021/05/01 02:14:04;;;;;;;17.13;12.23;;;;;;;2.66;100.00;92576.91;2129582;27;20102;-84
2021/05/01 02:15:10;;;;;;;30.02;11.85;;;;;;;2.61;100.00;92573.88;2105333;27;20592;-86
2021/05/01 02:16:11;;;;;;;23.15;12.88;;;;;;;2.62;100.00;92573.50;2113263;28;20027;-84
2021/05/01 02:17:12;;;;;;;25.65;12.88;;;;;;;2.68;100.00;92576.53;2113003;28;20024;-83
2021/05/01 02:18:13;;;;;;;18.42;12.70;;;;;;;2.72;100.00;92567.47;2107055;28;20116;-84
2021/05/01 02:19:13;;;;;;;19.30;12.13;;;;;;;2.70;100.00;92566.34;2111301;28;20067;-82
2021/05/01 02:20:17;;;;;;;44.85;13.30;;;;;;;2.66;100.00;92560.31;2096214;28;20381;-83
2021/05/01 02:21:18;;;;;;;24.75;12.77;;;;;;;2.69;100.00;92560.31;2105231;28;20039;-83
2021/05/01 02:22:18;;;;;;;46.65;12.95;;;;;;;2.67;100.00;92553.91;2109095;28;20020;-86
2021/05/01 02:23:19;;;;;;;17.17;11.85;;;;;;;2.75;100.00;92555.41;2110582;28;20039;-85
2021/05/01 02:24:20;;;;;;;56.80;13.45;;;;;;;2.76;100.00;92555.00;2106858;28;20044;-85
2021/05/01 02:25:21;;;;;;;65.03;13.32;;;;;;;2.64;100.00;92550.16;2118933;28;20035;-84
2021/05/01 02:26:22;;;;;;;26.05;11.93;;;;;;;2.68;100.00;92544.88;2115964;27;20795;-85
2021/05/01 02:27:23;;;;;;;36.25;12.68;;;;;;;2.66;100.00;92544.47;2135626;27;20034;-86
2021/05/01 02:28:24;;;;;;;31.02;13.15;;;;;;;2.69;100.00;92543.72;2132928;27;20010;-86
2021/05/01 02:29:24;;;;;;;25.27;12.82;;;;;;;2.62;100.00;92544.47;2121217;28;20058;-85
2021/05/01 02:30:27;;;;;;;17.90;13.15;;;;;;;2.66;100.00;92544.47;2124226;27;20033;-86
2021/05/01 02:31:28;;;;;;;17.38;13.27;;;;;;;2.69;100.00;92541.09;2117959;28;20020;-85
2021/05/01 02:32:28;;;;;;;17.35;12.77;;;;;;;2.75;100.00;92537.66;2108197;28;20022;-85
2021/05/01 02:33:29;;;;;;;17.60;12.93;;;;;;;2.74;100.00;92535.44;2121336;28;20395;-84
2021/05/01 02:34:30;;;;;;;15.75;12.27;;;;;;;2.78;100.00;92536.16;2129974;27;20060;-85
2021/05/01 02:35:33;;;;;;;18.35;12.80;;;;;;;2.80;100.00;92536.53;2129858;27;20015;-85
2021/05/01 02:36:34;;;;;;;19.20;14.00;;;;;;;2.76;100.00;92539.16;2121729;27;20503;-84
2021/05/01 02:37:35;;;;;;;17.95;13.55;;;;;;;2.77;100.00;92534.66;2112876;28;20035;-84
2021/05/01 02:38:36;;;;;;;17.23;13.88;;;;;;;2.92;100.00;92541.41;2113008;27;20491;-83
2021/05/01 02:39:36;;;;;;;18.30;13.40;;;;;;;2.86;100.00;92537.66;2112983;28;20153;-84
2021/05/01 02:40:37;;;;;;;17.25;13.50;;;;;;;2.91;100.00;92533.88;2104373;28;20640;-83
2021/05/01 02:41:38;;;;;;;17.73;14.05;;;;;;;2.91;100.00;92531.25;2104231;28;20031;-83
2021/05/01 02:42:39;;;;;;;21.55;13.48;;;;;;;2.78;100.00;92534.28;2122723;27;20096;-87
2021/05/01 02:43:40;;;;;;;22.60;14.15;;;;;;;2.76;100.00;92522.59;2129830;27;20114;-85
2021/05/01 02:44:41;;;;;;;23.20;12.50;;;;;;;2.90;100.00;92513.91;2112829;28;20035;-84
2021/05/01 02:45:41;;;;;;;34.90;13.93;;;;;;;2.89;100.00;92521.06;2121428;27;20442;-85
2021/05/01 02:46:42;;;;;;;17.95;13.32;;;;;;;2.85;100.00;92517.66;2117695;28;20043;-88
2021/05/01 02:47:43;;;;;;;18.48;13.07;;;;;;;2.77;100.00;92511.69;2112711;28;20069;-86
2021/05/01 02:48:44;;;;;;;17.05;13.10;;;;;;;2.73;100.00;92507.53;2112735;28;20072;-85
2021/05/01 02:49:45;;;;;;;22.15;13.13;;;;;;;2.75;100.00;92515.81;2107529;28;20016;-84
2021/05/01 02:50:45;;;;;;;20.75;14.07;;;;;;;2.70;100.00;92516.22;2112635;28;20019;-86
2021/05/01 02:51:46;;;;;;;28.67;16.05;;;;;;;2.72;100.00;92514.72;2118977;28;20015;-86
2021/05/01 02:52:47;;;;;;;21.35;12.73;;;;;;;2.70;100.00;92516.22;2112335;28;20032;-83
2021/05/01 02:53:48;;;;;;;17.23;13.25;;;;;;;2.70;100.00;92514.31;2105858;28;20023;-82
2021/05/01 02:54:49;;;;;;;20.35;13.35;;;;;;;2.73;100.00;92520.72;2110620;27;20020;-84
2021/05/01 02:55:50;;;;;;;19.15;14.00;;;;;;;2.69;100.00;92523.38;2116780;27;20096;-86
2021/05/01 02:56:51;;;;;;;19.15;14.70;;;;;;;2.69;100.00;92518.09;2114161;28;20468;-84
2021/05/01 02:57:52;;;;;;;20.45;15.00;;;;;;;2.72;100.00;92519.97;2125250;27;20110;-87
2021/05/01 02:58:52;;;;;;;18.58;13.55;;;;;;;2.70;100.00;92521.47;2120975;27;20034;-86
2021/05/01 02:59:53;;;;;;;20.38;14.48;;;;;;;2.63;100.00;92516.97;2112655;28;20063;-85
2021/05/01 03:00:55;;;;;;;18.80;14.10;;;;;;;2.85;100.00;92520.31;2112587;28;20026;-82
2021/05/01 03:01:55;;;;;;;19.55;15.10;;;;;;;2.80;100.00;92512.78;2129747;27;20398;-83
2021/05/01 03:02:56;;;;;;;18.27;14.63;;;;;;;2.77;100.00;92513.56;2121069;28;20028;-84
2021/05/01 03:03:57;;;;;;;26.50;14.48;;;;;;;2.81;100.00;92509.03;2120810;27;20496;-85
2021/05/01 03:04:58;;;;;;;19.27;14.90;;;;;;;2.85;100.00;92512.38;2121002;28;20030;-84
2021/05/01 03:05:59;;;;;;;20.02;13.98;;;;;;;2.86;100.00;92510.53;2104396;28;20047;-85
2021/05/01 03:07:00;;;;;;;20.48;13.75;;;;;;;2.82;100.00;92507.88;2103920;28;20020;-85
2021/05/01 03:08:00;;;;;;;19.33;14.65;;;;;;;2.88;100.00;92508.25;2112492;28;20020;-85
2021/05/01 03:09:01;;;;;;;18.73;13.98;;;;;;;2.81;100.00;92505.63;2121169;27;20023;-83
2021/05/01 03:10:08;;;;;;;19.65;14.70;;;;;;;2.66;100.00;92512.81;2129530;27;20455;-83
2021/05/01 03:11:08;;;;;;;21.17;14.20;;;;;;;2.80;100.00;92512.03;2096696;28;20032;-87
2021/05/01 03:12:09;;;;;;;18.33;14.30;;;;;;;2.87;100.00;92506.75;2096649;28;20415;-84
2021/05/01 03:13:10;;;;;;;17.30;13.93;;;;;;;2.84;100.00;92505.63;2112681;28;20023;-85
2021/05/01 03:14:10;;;;;;;18.17;13.68;;;;;;;2.78;100.00;92504.50;2112668;28;20019;-83
2021/05/01 03:15:13;;;;;;;18.92;14.18;;;;;;;2.78;100.00;92502.63;2112447;28;20023;-89
2021/05/01 03:16:14;;;;;;;17.75;13.82;;;;;;;2.79;100.00;92500.72;2115898;28;20098;-83
2021/05/01 03:17:14;;;;;;;18.60;14.45;;;;;;;2.78;100.00;92497.34;2100474;28;20489;-83
2021/05/01 03:18:15;;;;;;;17.88;13.88;;;;;;;2.82;100.00;92496.59;2106837;28;20026;-80
2021/05/01 03:19:16;;;;;;;18.42;14.90;;;;;;;2.77;100.00;92498.47;2115073;28;20022;-86
2021/05/01 03:20:17;;;;;;;18.85;14.55;;;;;;;2.86;100.00;92492.81;2115214;28;20027;-86
2021/05/01 03:21:18;;;;;;;19.00;14.75;;;;;;;2.91;100.00;92492.41;2106927;28;20074;-84
2021/05/01 03:22:19;;;;;;;16.75;13.00;;;;;;;2.86;100.00;92492.06;2115379;28;20027;-83
2021/05/01 03:23:20;;;;;;;17.85;12.70;;;;;;;2.83;100.00;92495.44;2106814;28;20016;-82
2021/05/01 03:24:21;;;;;;;17.17;13.23;;;;;;;2.86;100.00;92508.63;2098749;28;20422;-85
2021/05/01 03:25:22;;;;;;;16.63;13.07;;;;;;;2.86;100.00;92508.63;2098617;28;20025;-84
2021/05/01 03:26:23;;;;;;;18.02;13.02;;;;;;;2.88;100.00;92509.00;2114897;28;20047;-83
2021/05/01 03:27:24;;;;;;;17.80;13.50;;;;;;;2.88;100.00;92510.88;2109622;28;20039;-85
2021/05/01 03:28:24;;;;;;;17.92;14.15;;;;;;;2.76;100.00;92512.78;2115336;28;20107;-84
2021/05/01 03:29:25;;;;;;;17.13;13.60;;;;;;;2.78;100.00;92507.16;2115193;28;20031;-85
2021/05/01 03:30:26;;;;;;;16.77;14.10;;;;;;;2.74;100.00;92503.75;2106552;28;20024;-81
2021/05/01 03:31:27;;;;;;;18.08;13.13;;;;;;;2.90;100.00;92517.31;2115302;28;20024;-82
2021/05/01 03:32:27;;;;;;;18.45;14.05;;;;;;;2.93;100.00;92513.88;2114973;28;20030;-86
2021/05/01 03:33:28;;;;;;;17.80;13.60;;;;;;;2.81;100.00;92514.31;2098540;28;20055;-83
2021/05/01 03:34:29;;;;;;;15.93;12.85;;;;;;;2.83;100.00;92511.28;2106714;28;20019;-86
2021/05/01 03:35:30;;;;;;;17.63;13.32;;;;;;;2.92;100.00;92512.38;2115257;28;20028;-86
2021/05/01 03:36:30;;;;;;;18.65;14.20;;;;;;;2.79;100.00;92508.66;2115231;28;20098;-85
2021/05/01 03:37:31;;;;;;;19.75;13.93;;;;;;;2.84;100.00;92504.88;2106783;28;20020;-84
2021/05/01 03:38:32;;;;;;;16.52;12.82;;;;;;;2.97;100.00;92511.22;2115344;28;20031;-87
2021/05/01 03:39:33;;;;;;;16.73;13.23;;;;;;;2.94;100.00;92511.97;2115265;28;20076;-85
2021/05/01 03:40:34;;;;;;;16.58;13.25;;;;;;;2.90;100.00;92506.75;2115080;28;20687;-84
2021/05/01 03:41:34;;;;;;;19.40;14.65;;;;;;;2.93;100.00;92505.22;2115218;28;20541;-82
2021/05/01 03:42:36;;;;;;;19.40;14.60;;;;;;;2.91;100.00;92507.50;2114824;28;20023;-82
2021/05/01 03:43:37;;;;;;;18.00;13.70;;;;;;;2.81;100.00;92502.97;2115094;28;20015;-86
2021/05/01 03:44:37;;;;;;;17.88;14.00;;;;;;;2.91;100.00;92510.13;2106590;28;20027;-86
2021/05/01 03:45:38;;;;;;;18.65;14.13;;;;;;;2.87;100.00;92502.22;2098296;28;20386;-88
2021/05/01 03:46:39;;;;;;;19.85;14.57;;;;;;;2.78;100.00;92504.50;2098306;28;20025;-86
2021/05/01 03:47:40;;;;;;;20.75;14.77;;;;;;;2.90;100.00;92498.06;2098435;28;20071;-87
2021/05/01 03:48:41;;;;;;;18.15;13.77;;;;;;;2.84;100.00;92502.97;2106648;28;20032;-84
2021/05/01 03:49:41;;;;;;;19.55;13.80;;;;;;;2.82;100.00;92492.06;2106827;28;20427;-84
2021/05/01 03:50:42;;;;;;;20.17;14.85;;;;;;;2.74;100.00;92495.84;2098158;28;20028;-83
2021/05/01 03:51:43;;;;;;;22.55;15.13;;;;;;;2.76;100.00;92493.56;2102678;28;20377;-85
2021/05/01 03:52:44;;;;;;;19.58;14.15;;;;;;;2.82;100.00;92499.97;2112288;28;20352;-86
2021/05/01 03:53:44;;;;;;;18.67;14.50;;;;;;;2.78;100.00;92501.88;2106605;28;20066;-86
2021/05/01 03:54:45;;;;;;;18.55;14.30;;;;;;;2.80;100.00;92507.50;2098174;28;20016;-84
2021/05/01 03:55:45;;;;;;;20.27;14.40;;;;;;;2.92;100.00;92499.19;2106645;28;20079;-86
2021/05/01 03:56:46;;;;;;;18.25;14.20;;;;;;;2.91;100.00;92513.53;2112540;28;20019;-84
2021/05/01 03:57:47;;;;;;;19.55;14.93;;;;;;;2.95;100.00;92524.06;2104269;28;20044;-84
2021/05/01 03:58:48;;;;;;;18.70;14.25;;;;;;;2.83;100.00;92521.84;2098269;28;20151;-86
2021/05/01 03:59:49;;;;;;;19.42;14.23;;;;;;;2.99;100.00;92530.84;2098437;28;20016;-83
2021/05/01 04:00:51;;;;;;;17.85;14.00;;;;;;;2.94;100.00;92523.31;2106728;28;20028;-84
2021/05/01 04:01:51;;;;;;;17.77;13.23;;;;;;;2.85;100.00;92525.59;2106819;28;20016;-86
2021/05/01 04:02:52;;;;;;;18.20;13.98;;;;;;;2.80;100.00;92535.78;2115043;28;20055;-84
2021/05/01 04:03:53;;;;;;;19.00;13.60;;;;;;;3.09;100.00;92533.84;2098163;28;20081;-86
2021/05/01 04:04:53;;;;;;;19.15;13.52;;;;;;;2.98;100.00;92531.97;2114877;28;20059;-86
2021/05/01 04:05:54;;;;;;;18.13;14.02;;;;;;;2.89;100.00;92531.59;2106606;28;20020;-86
2021/05/01 04:06:54;;;;;;;18.02;13.38;;;;;;;2.86;100.00;92540.31;2097985;28;20025;-84
2021/05/01 04:07:55;;;;;;;18.52;13.50;;;;;;;2.81;100.00;92535.41;2106478;28;20461;-84
2021/05/01 04:08:56;;;;;;;18.90;14.05;;;;;;;2.83;100.00;92533.13;2106546;28;20415;-83
2021/05/01 04:09:57;;;;;;;19.08;13.63;;;;;;;2.97;100.00;92529.72;2106454;28;20020;-86
2021/05/01 04:10:58;;;;;;;17.60;14.27;;;;;;;2.95;100.00;92524.81;2114986;28;20020;-85
2021/05/01 04:11:59;;;;;;;18.80;13.95;;;;;;;2.90;100.00;92524.47;2114989;28;20020;-86
2021/05/01 04:13:00;;;;;;;19.95;14.90;;;;;;;2.88;100.00;92519.56;2106673;28;20122;-85
2021/05/01 04:14:01;;;;;;;20.40;15.23;;;;;;;2.91;100.00;92513.53;2106454;28;20020;-82
2021/05/01 04:15:04;;;;;;;18.83;14.50;;;;;;;2.82;100.00;92510.53;2106542;28;20118;-84
2021/05/01 04:16:04;;;;;;;18.38;14.55;;;;;;;2.84;100.00;92510.88;2090423;28;20147;-83
2021/05/01 04:17:05;;;;;;;19.08;14.50;;;;;;;2.84;100.00;92515.41;2099610;28;20032;-84
2021/05/01 04:18:12;;;;;;;20.52;14.30;;;;;;;2.93;100.00;92513.88;2098379;28;20028;-82
2021/05/01 04:19:12;;;;;;;18.02;13.90;;;;;;;2.94;100.00;92511.97;2115488;27;20387;-87
2021/05/01 04:20:14;;;;;;;19.02;14.38;;;;;;;2.89;100.00;92505.22;2106264;28;20070;-84
2021/05/01 04:21:16;;;;;;;19.23;14.27;;;;;;;2.97;100.00;92504.06;2098198;28;20024;-84
2021/05/01 04:22:22;;;;;;;17.80;13.57;;;;;;;2.92;100.00;92501.81;2098448;28;20473;-85
2021/05/01 04:23:23;;;;;;;17.80;13.90;;;;;;;2.94;100.00;92501.44;2115697;27;20041;-84
2021/05/01 04:24:24;;;;;;;19.15;14.35;;;;;;;2.95;100.00;92492.41;2123357;27;20073;-84
2021/05/01 04:25:24;;;;;;;18.25;14.05;;;;;;;2.98;100.00;92496.88;2106363;28;20066;-85
2021/05/01 04:26:25;;;;;;;19.00;14.00;;;;;;;2.87;100.00;92502.22;2115007;28;20467;-84
2021/05/01 04:27:26;;;;;;;18.40;13.80;;;;;;;2.94;100.00;92502.22;2114228;28;20028;-83
2021/05/01 04:28:27;;;;;;;16.85;13.85;;;;;;;2.94;100.00;92496.94;2105824;28;20484;-86
2021/05/01 04:29:28;;;;;;;16.83;13.10;;;;;;;2.94;100.00;92502.22;2115124;28;20024;-86
2021/05/01 04:30:29;;;;;;;15.70;12.52;;;;;;;2.82;100.00;92488.66;2106336;28;20028;-84
2021/05/01 04:31:30;;;;;;;16.85;13.30;;;;;;;2.86;100.00;92492.81;2106334;28;20069;-83
2021/05/01 04:32:30;;;;;;;18.15;14.18;;;;;;;2.77;100.00;92500.38;2106481;28;20028;-84
2021/05/01 04:33:31;;;;;;;16.33;13.15;;;;;;;2.86;100.00;92497.34;2106381;28;20055;-82
2021/05/01 04:34:32;;;;;;;17.88;12.77;;;;;;;2.77;100.00;92498.47;2114671;28;20073;-85
2021/05/01 04:35:32;;;;;;;15.40;12.30;;;;;;;2.81;100.00;92498.47;2106201;28;20059;-84
2021/05/01 04:36:33;;;;;;;15.80;12.52;;;;;;;2.95;100.00;92503.69;2114825;28;20019;-84
2021/05/01 04:37:34;;;;;;;18.75;13.50;;;;;;;2.80;100.00;92491.66;2114836;28;20028;-85
2021/05/01 04:38:34;;;;;;;15.65;12.73;;;;;;;2.81;100.00;92492.41;2114499;28;20094;-84
2021/05/01 04:39:35;;;;;;;14.75;11.95;;;;;;;2.87;100.00;92494.28;2114866;28;20468;-81
2021/05/01 04:40:36;;;;;;;15.90;12.95;;;;;;;2.88;100.00;92493.16;2106115;28;20065;-83
2021/05/01 04:41:37;;;;;;;15.15;12.48;;;;;;;2.88;100.00;92493.16;2097767;28;20025;-84
2021/05/01 04:42:45;;;;;;;16.35;12.55;;;;;;;2.90;100.00;92492.78;2096826;28;20024;-85